sensor_id;sensor_type;location;lat;lon;timestamp;pressure;altitude;pressure_sealevel;temperature;humidity
53689;BME280;39583;54.682;30.662;2023-04-04T06:20:13;99603.59;;;2.11;100.00
53689;BME280;39583;54.682;30.662;2023-04-04T06:22:41;99607.16;;;2.44;100.00
53689;BME280;39583;54.682;30.662;2023-04-04T06:25:07;99600.03;;;2.69;100.00
53689;BME280;39583;54.682;30.662;2023-04-04T08:02:01;99657.53;;;3.10;100.00
53689;BME280;39583;54.682;30.662;2023-04-04T08:04:27;99662.66;;;3.36;98.90
53689;BME280;39583;54.682;30.662;2023-04-04T08:06:53;99671.28;;;3.46;98.05
53689;BME280;39583;54.682;30.662;2023-04-04T08:09:18;99669.94;;;3.59;96.84
53689;BME280;39583;54.682;30.662;2023-04-04T08:11:44;99662.47;;;3.54;95.00
53689;BME280;39583;54.682;30.662;2023-04-04T08:14:10;99652.66;;;3.54;95.07
53689;BME280;39583;54.682;30.662;2023-04-04T08:16:39;99655.97;;;3.65;94.86
53689;BME280;39583;54.682;30.662;2023-04-04T08:19:05;99650.59;;;3.81;95.13
53689;BME280;39583;54.682;30.662;2023-04-04T08:21:32;99649.50;;;3.98;95.08
53689;BME280;39583;54.682;30.662;2023-04-04T08:23:58;99650.63;;;4.12;93.94
53689;BME280;39583;54.682;30.662;2023-04-04T08:26:24;99646.66;;;4.00;92.08
53689;BME280;39583;54.682;30.662;2023-04-04T08:28:50;99651.50;;;4.04;92.40
53689;BME280;39583;54.682;30.662;2023-04-04T08:31:15;99652.44;;;4.20;93.03
53689;BME280;39583;54.682;30.662;2023-04-04T08:33:42;99649.41;;;4.23;92.36
53689;BME280;39583;54.682;30.662;2023-04-04T08:36:08;99643.38;;;4.29;92.11
53689;BME280;39583;54.682;30.662;2023-04-04T08:38:33;99645.53;;;4.33;92.52
53689;BME280;39583;54.682;30.662;2023-04-04T08:40:59;99638.72;;;4.31;92.50
53689;BME280;39583;54.682;30.662;2023-04-04T12:38:15;99738.03;;;4.17;100.00
53689;BME280;39583;54.682;30.662;2023-04-04T12:40:44;99735.09;;;4.42;100.00
53689;BME280;39583;54.682;30.662;2023-04-04T12:43:31;99743.81;;;4.67;100.00
53689;BME280;39583;54.682;30.662;2023-04-04T12:46:25;99737.06;;;4.80;100.00
53689;BME280;39583;54.682;30.662;2023-04-04T12:49:10;99726.41;;;4.80;100.00
53689;BME280;39583;54.682;30.662;2023-04-04T12:51:36;99731.22;;;4.84;100.00
53689;BME280;39583;54.682;30.662;2023-04-04T12:54:28;99729.03;;;4.88;100.00
53689;BME280;39583;54.682;30.662;2023-04-04T12:57:22;99725.50;;;4.95;100.00
53689;BME280;39583;54.682;30.662;2023-04-04T12:59:52;99728.56;;;5.07;100.00
53689;BME280;39583;54.682;30.662;2023-04-04T13:02:25;99729.47;;;5.22;100.00
53689;BME280;39583;54.682;30.662;2023-04-04T13:04:52;99731.88;;;5.32;100.00
53689;BME280;39583;54.682;30.662;2023-04-04T13:07:28;99726.84;;;5.37;100.00
53689;BME280;39583;54.682;30.662;2023-04-04T13:09:58;99731.56;;;5.50;100.00
53689;BME280;39583;54.682;30.662;2023-04-04T13:12:25;99722.09;;;5.47;99.77
53689;BME280;39583;54.682;30.662;2023-04-04T13:15:03;99732.22;;;5.52;99.98
53689;BME280;39583;54.682;30.662;2023-04-04T13:17:41;99729.63;;;5.58;99.70
53689;BME280;39583;54.682;30.662;2023-04-04T13:20:09;99735.09;;;5.65;99.62
53689;BME280;39583;54.682;30.662;2023-04-04T13:22:36;99738.41;;;5.67;99.05
53689;BME280;39583;54.682;30.662;2023-04-04T13:25:06;99732.97;;;5.60;98.33
53689;BME280;39583;54.682;30.662;2023-04-04T13:27:33;99730.66;;;5.57;98.28
53689;BME280;39583;54.682;30.662;2023-04-04T13:29:59;99733.41;;;5.49;98.02
53689;BME280;39583;54.682;30.662;2023-04-04T13:32:25;99736.78;;;5.43;98.11
53689;BME280;39583;54.682;30.662;2023-04-04T13:34:50;99732.59;;;5.49;98.43
53689;BME280;39583;54.682;30.662;2023-04-04T13:37:16;99732.50;;;5.57;98.44
53689;BME280;39583;54.682;30.662;2023-04-04T13:39:43;99727.53;;;5.54;97.65
53689;BME280;39583;54.682;30.662;2023-04-04T13:42:09;99726.00;;;5.37;96.85
53689;BME280;39583;54.682;30.662;2023-04-04T13:44:35;99736.03;;;5.35;97.46
53689;BME280;39583;54.682;30.662;2023-04-04T13:47:01;99739.47;;;5.43;97.75
53689;BME280;39583;54.682;30.662;2023-04-04T13:49:27;99730.03;;;5.32;97.45
53689;BME280;39583;54.682;30.662;2023-04-04T13:51:53;99730.75;;;5.26;97.56
53689;BME280;39583;54.682;30.662;2023-04-04T13:54:19;99741.66;;;5.17;96.95
53689;BME280;39583;54.682;30.662;2023-04-04T13:56:45;99736.41;;;5.09;97.40
53689;BME280;39583;54.682;30.662;2023-04-04T13:59:12;99725.41;;;5.03;97.28
53689;BME280;39583;54.682;30.662;2023-04-04T14:01:39;99731.31;;;4.99;97.52
53689;BME280;39583;54.682;30.662;2023-04-04T14:04:05;99740.81;;;4.93;97.26
53689;BME280;39583;54.682;30.662;2023-04-04T14:06:31;99754.69;;;4.89;96.96
53689;BME280;39583;54.682;30.662;2023-04-04T14:08:57;99742.09;;;4.83;97.27
53689;BME280;39583;54.682;30.662;2023-04-04T14:11:23;99745.91;;;4.80;97.30
53689;BME280;39583;54.682;30.662;2023-04-04T14:13:58;99745.16;;;4.71;97.07
53689;BME280;39583;54.682;30.662;2023-04-04T14:16:24;99750.94;;;4.75;97.58
53689;BME280;39583;54.682;30.662;2023-04-04T14:18:50;99752.78;;;4.74;97.43
53689;BME280;39583;54.682;30.662;2023-04-04T14:21:16;99749.94;;;4.76;97.25
53689;BME280;39583;54.682;30.662;2023-04-04T14:23:42;99751.59;;;4.77;97.48
53689;BME280;39583;54.682;30.662;2023-04-04T14:26:08;99744.81;;;4.66;96.80
53689;BME280;39583;54.682;30.662;2023-04-04T14:28:34;99750.69;;;4.62;97.07
53689;BME280;39583;54.682;30.662;2023-04-04T14:31:01;99752.88;;;4.58;96.88
53689;BME280;39583;54.682;30.662;2023-04-04T14:33:26;99752.91;;;4.50;96.76
53689;BME280;39583;54.682;30.662;2023-04-04T14:35:52;99749.41;;;4.50;97.12
53689;BME280;39583;54.682;30.662;2023-04-04T14:38:18;99745.25;;;4.47;97.20
53689;BME280;39583;54.682;30.662;2023-04-04T14:40:46;99749.63;;;4.40;97.06
53689;BME280;39583;54.682;30.662;2023-04-04T14:43:13;99745.25;;;4.47;97.19
53689;BME280;39583;54.682;30.662;2023-04-04T14:45:39;99747.41;;;4.52;97.54
53689;BME280;39583;54.682;30.662;2023-04-04T14:48:07;99760.22;;;4.56;97.22
53689;BME280;39583;54.682;30.662;2023-04-04T14:50:33;99766.25;;;4.50;96.77
53689;BME280;39583;54.682;30.662;2023-04-04T14:52:59;99762.63;;;4.35;96.47
53689;BME280;39583;54.682;30.662;2023-04-04T14:55:25;99755.59;;;4.42;97.43
53689;BME280;39583;54.682;30.662;2023-04-04T14:57:52;99759.25;;;4.49;97.18
53689;BME280;39583;54.682;30.662;2023-04-04T15:00:18;99754.09;;;4.48;97.21
53689;BME280;39583;54.682;30.662;2023-04-04T15:02:49;99770.56;;;4.51;97.33
53689;BME280;39583;54.682;30.662;2023-04-04T15:05:15;99758.25;;;4.42;96.97
53689;BME280;39583;54.682;30.662;2023-04-04T15:07:43;99756.59;;;4.41;97.12
53689;BME280;39583;54.682;30.662;2023-04-04T15:10:10;99757.13;;;4.36;96.99
53689;BME280;39583;54.682;30.662;2023-04-04T15:12:36;99753.75;;;4.42;97.37
53689;BME280;39583;54.682;30.662;2023-04-04T15:15:02;99761.28;;;4.39;96.79
53689;BME280;39583;54.682;30.662;2023-04-04T15:17:28;99757.31;;;4.35;96.91
53689;BME280;39583;54.682;30.662;2023-04-04T15:19:55;99756.66;;;4.33;96.95
53689;BME280;39583;54.682;30.662;2023-04-04T15:22:20;99761.97;;;4.33;96.73
53689;BME280;39583;54.682;30.662;2023-04-04T15:24:46;99761.00;;;4.26;96.54
53689;BME280;39583;54.682;30.662;2023-04-04T15:27:12;99760.69;;;4.21;96.28
53689;BME280;39583;54.682;30.662;2023-04-04T15:29:38;99757.38;;;4.19;96.83
53689;BME280;39583;54.682;30.662;2023-04-04T15:32:04;99763.72;;;4.18;96.77
53689;BME280;39583;54.682;30.662;2023-04-04T15:34:31;99758.19;;;4.19;96.93
53689;BME280;39583;54.682;30.662;2023-04-04T15:36:57;99766.03;;;4.21;96.99
53689;BME280;39583;54.682;30.662;2023-04-04T15:39:27;99757.84;;;4.22;97.14
53689;BME280;39583;54.682;30.662;2023-04-04T15:41:53;99782.19;;;4.19;96.83
53689;BME280;39583;54.682;30.662;2023-04-04T15:44:20;99773.69;;;4.15;96.26
53689;BME280;39583;54.682;30.662;2023-04-04T15:46:47;99771.53;;;4.11;96.56
53689;BME280;39583;54.682;30.662;2023-04-04T15:49:13;99773.72;;;4.07;96.63
53689;BME280;39583;54.682;30.662;2023-04-04T15:51:39;99766.56;;;4.08;97.11
53689;BME280;39583;54.682;30.662;2023-04-04T15:54:08;99780.06;;;4.06;96.79
53689;BME280;39583;54.682;30.662;2023-04-04T15:56:34;99774.38;;;4.01;96.88
53689;BME280;39583;54.682;30.662;2023-04-04T15:59:00;99774.06;;;4.04;97.05
53689;BME280;39583;54.682;30.662;2023-04-04T16:01:26;99770.88;;;4.09;97.16
53689;BME280;39583;54.682;30.662;2023-04-04T16:03:52;99774.38;;;4.09;97.21
53689;BME280;39583;54.682;30.662;2023-04-04T16:06:19;99782.53;;;4.08;96.69
53689;BME280;39583;54.682;30.662;2023-04-04T16:08:45;99786.88;;;4.09;96.81
53689;BME280;39583;54.682;30.662;2023-04-04T16:11:11;99783.19;;;4.10;96.71
53689;BME280;39583;54.682;30.662;2023-04-04T16:13:37;99780.38;;;4.11;96.95
53689;BME280;39583;54.682;30.662;2023-04-04T16:16:03;99784.22;;;4.09;96.74
53689;BME280;39583;54.682;30.662;2023-04-04T16:18:30;99783.38;;;4.00;96.80
53689;BME280;39583;54.682;30.662;2023-04-04T16:20:56;99781.72;;;3.99;96.91
53689;BME280;39583;54.682;30.662;2023-04-04T16:23:21;99783.06;;;3.95;96.63
53689;BME280;39583;54.682;30.662;2023-04-04T16:25:49;99788.41;;;3.87;96.16
53689;BME280;39583;54.682;30.662;2023-04-04T16:28:14;99785.25;;;3.83;96.50
53689;BME280;39583;54.682;30.662;2023-04-04T16:30:41;99785.44;;;3.82;96.64
53689;BME280;39583;54.682;30.662;2023-04-04T16:33:07;99786.06;;;3.76;96.36
53689;BME280;39583;54.682;30.662;2023-04-04T16:35:33;99787.25;;;3.73;96.51
53689;BME280;39583;54.682;30.662;2023-04-04T16:37:59;99774.44;;;3.69;96.43
53689;BME280;39583;54.682;30.662;2023-04-04T16:40:25;99781.59;;;3.68;96.69
53689;BME280;39583;54.682;30.662;2023-04-04T16:42:51;99785.75;;;3.71;97.12
53689;BME280;39583;54.682;30.662;2023-04-04T16:45:17;99785.75;;;3.71;97.01
53689;BME280;39583;54.682;30.662;2023-04-04T16:47:43;99783.44;;;3.68;96.85
53689;BME280;39583;54.682;30.662;2023-04-04T16:50:09;99784.09;;;3.70;96.79
53689;BME280;39583;54.682;30.662;2023-04-04T16:52:35;99778.59;;;3.71;97.01
53689;BME280;39583;54.682;30.662;2023-04-04T16:55:01;99774.94;;;3.72;97.02
53689;BME280;39583;54.682;30.662;2023-04-04T16:57:27;99780.94;;;3.74;97.06
53689;BME280;39583;54.682;30.662;2023-04-04T16:59:53;99776.25;;;3.76;96.61
53689;BME280;39583;54.682;30.662;2023-04-04T17:02:20;99771.75;;;3.77;96.67
53689;BME280;39583;54.682;30.662;2023-04-04T17:04:48;99769.94;;;3.77;96.51
53689;BME280;39583;54.682;30.662;2023-04-04T17:07:20;99768.25;;;3.76;96.30
53689;BME280;39583;54.682;30.662;2023-04-04T17:09:48;99771.44;;;3.72;96.18
53689;BME280;39583;54.682;30.662;2023-04-04T17:12:18;99770.13;;;3.68;96.29
53689;BME280;39583;54.682;30.662;2023-04-04T17:14:45;99768.47;;;3.67;96.75
53689;BME280;39583;54.682;30.662;2023-04-04T17:17:14;99771.13;;;3.67;96.62
53689;BME280;39583;54.682;30.662;2023-04-04T17:19:41;99770.94;;;3.60;96.47
53689;BME280;39583;54.682;30.662;2023-04-04T17:22:07;99773.78;;;3.59;96.43
53689;BME280;39583;54.682;30.662;2023-04-04T17:24:33;99782.44;;;3.61;96.71
53689;BME280;39583;54.682;30.662;2023-04-04T17:27:00;99764.13;;;3.58;96.95
53689;BME280;39583;54.682;30.662;2023-04-04T17:29:26;99777.09;;;3.61;96.81
53689;BME280;39583;54.682;30.662;2023-04-04T17:31:55;99780.94;;;3.58;96.73
53689;BME280;39583;54.682;30.662;2023-04-04T17:34:22;99781.28;;;3.55;96.57
53689;BME280;39583;54.682;30.662;2023-04-04T17:36:52;99777.44;;;3.49;96.42
53689;BME280;39583;54.682;30.662;2023-04-04T17:39:22;99781.28;;;3.47;96.44
53689;BME280;39583;54.682;30.662;2023-04-04T17:41:50;99772.78;;;3.43;96.46
53689;BME280;39583;54.682;30.662;2023-04-04T17:44:18;99786.09;;;3.43;96.51
53689;BME280;39583;54.682;30.662;2023-04-04T17:46:45;99789.78;;;3.42;96.36
53689;BME280;39583;54.682;30.662;2023-04-04T17:49:13;99781.94;;;3.41;96.72
53689;BME280;39583;54.682;30.662;2023-04-04T17:51:46;99780.78;;;3.43;96.88
53689;BME280;39583;54.682;30.662;2023-04-04T17:54:12;99782.44;;;3.44;96.38
53689;BME280;39583;54.682;30.662;2023-04-04T17:56:38;99782.09;;;3.47;96.66
53689;BME280;39583;54.682;30.662;2023-04-04T17:59:04;99772.44;;;3.46;96.90
53689;BME280;39583;54.682;30.662;2023-04-04T18:01:30;99771.63;;;3.46;96.46
53689;BME280;39583;54.682;30.662;2023-04-04T18:03:57;99780.28;;;3.48;96.68
53689;BME280;39583;54.682;30.662;2023-04-04T18:06:23;99779.28;;;3.49;96.42
53689;BME280;39583;54.682;30.662;2023-04-04T18:08:50;99781.09;;;3.48;96.39
53689;BME280;39583;54.682;30.662;2023-04-04T18:11:16;99787.78;;;3.52;96.63
53689;BME280;39583;54.682;30.662;2023-04-04T18:13:41;99786.94;;;3.52;96.31
53689;BME280;39583;54.682;30.662;2023-04-04T18:16:09;99776.59;;;3.49;96.20
53689;BME280;39583;54.682;30.662;2023-04-04T18:18:36;99785.09;;;3.44;96.28
53689;BME280;39583;54.682;30.662;2023-04-04T18:21:03;99789.09;;;3.40;96.24
53689;BME280;39583;54.682;30.662;2023-04-04T18:23:30;99784.09;;;3.37;96.15
53689;BME280;39583;54.682;30.662;2023-04-04T18:25:56;99789.09;;;3.32;96.04
53689;BME280;39583;54.682;30.662;2023-04-04T18:28:21;99787.91;;;3.35;96.29
53689;BME280;39583;54.682;30.662;2023-04-04T18:30:47;99787.44;;;3.31;96.48
53689;BME280;39583;54.682;30.662;2023-04-04T18:33:13;99791.59;;;3.34;96.60
